createdAt,value
2023-03-19T00:00:56.282Z,101885.52
2023-03-19T00:03:40.672Z,101882.91
2023-03-19T00:06:09.005Z,101881.39
2023-03-19T00:08:37.128Z,101880.09
2023-03-19T00:11:09.650Z,101879.04
2023-03-19T00:13:37.890Z,101873.77
2023-03-19T00:16:07.581Z,101869.34
2023-03-19T00:18:35.794Z,101871.00
2023-03-19T00:21:04.208Z,101868.80
2023-03-19T00:23:32.448Z,101865.68
2023-03-19T00:26:00.905Z,101863.34
2023-03-19T00:28:29.390Z,101861.40
2023-03-19T00:30:57.789Z,101859.84
2023-03-19T00:33:26.727Z,101857.86
2023-03-19T00:35:54.898Z,101859.45
2023-03-19T00:38:22.993Z,101856.98
2023-03-19T00:40:51.186Z,101851.56
2023-03-19T00:43:19.376Z,101849.36
2023-03-19T00:45:47.527Z,101849.42
2023-03-19T00:48:15.795Z,101847.27
2023-03-19T00:50:44.199Z,101843.61
2023-03-19T00:53:12.345Z,101846.42
2023-03-19T00:55:40.651Z,101845.45
2023-03-19T00:58:10.379Z,101841.45
2023-03-19T01:00:39.083Z,101840.28
2023-03-19T01:03:07.220Z,101840.36
2023-03-19T01:08:04.897Z,101839.52
2023-03-19T01:10:35.148Z,101836.86
2023-03-19T01:13:03.571Z,101835.36
2023-03-19T01:15:32.086Z,101834.37
2023-03-19T01:18:01.195Z,101832.45
2023-03-19T01:20:29.311Z,101832.31
2023-03-19T01:22:57.617Z,101831.27
2023-03-19T01:25:25.831Z,101829.27
2023-03-19T01:27:54.526Z,101830.92
2023-03-19T01:30:22.731Z,101827.67
2023-03-19T01:32:50.905Z,101825.34
2023-03-19T01:35:19.188Z,101821.64
2023-03-19T01:37:47.627Z,101823.44
2023-03-19T01:40:15.967Z,101825.82
2023-03-19T01:42:55.132Z,101830.02
2023-03-19T01:45:31.002Z,101833.10
2023-03-19T01:47:59.293Z,101832.05
2023-03-19T01:50:30.667Z,101836.51
2023-03-19T01:52:59.445Z,101834.52
2023-03-19T01:55:28.061Z,101834.90
2023-03-19T01:57:57.060Z,101835.34
2023-03-19T02:00:25.318Z,101839.85
2023-03-19T02:02:56.875Z,101842.23
2023-03-19T02:05:26.098Z,101842.35
2023-03-19T02:07:58.578Z,101843.38
2023-03-19T02:10:27.509Z,101840.56
2023-03-19T02:12:55.892Z,101837.30
2023-03-19T02:15:24.074Z,101840.46
2023-03-19T02:17:52.214Z,101842.59
2023-03-19T02:20:41.234Z,101840.88
2023-03-19T02:23:36.701Z,101840.48
2023-03-19T02:26:10.542Z,101842.56
2023-03-19T02:28:40.831Z,101840.41
2023-03-19T02:31:09.341Z,101837.83
2023-03-19T02:33:37.600Z,101840.13
2023-03-19T02:36:09.395Z,101841.14
2023-03-19T02:38:39.365Z,101842.45
2023-03-19T02:41:08.565Z,101847.96
2023-03-19T02:43:39.168Z,101851.80
2023-03-19T02:46:12.052Z,101854.38
2023-03-19T02:48:41.481Z,101861.69
2023-03-19T02:51:09.883Z,101865.80
2023-03-19T02:53:38.137Z,101864.15
2023-03-19T02:56:06.616Z,101862.48
2023-03-19T02:58:34.755Z,101861.90
2023-03-19T03:01:03.038Z,101864.71
2023-03-19T03:03:32.685Z,101865.98
2023-03-19T03:06:00.882Z,101865.81
2023-03-19T03:08:29.061Z,101863.66
2023-03-19T03:10:57.212Z,101864.08
2023-03-19T03:13:25.457Z,101862.77
2023-03-19T03:15:53.910Z,101865.80
2023-03-19T03:18:22.080Z,101861.30
2023-03-19T03:20:50.301Z,101860.31
2023-03-19T03:23:18.496Z,101860.40
2023-03-19T03:25:50.342Z,101863.09
2023-03-19T03:28:19.355Z,101866.56
2023-03-19T03:30:47.772Z,101865.41
2023-03-19T03:33:17.494Z,101866.61
2023-03-19T03:35:45.711Z,101871.71
2023-03-19T03:38:13.916Z,101871.13
2023-03-19T03:40:42.164Z,101870.71
2023-03-19T03:43:10.747Z,101872.88
2023-03-19T03:45:38.984Z,101873.91
2023-03-19T03:48:07.291Z,101872.33
2023-03-19T03:50:36.714Z,101873.02
2023-03-19T03:53:04.861Z,101872.35
2023-03-19T03:55:33.235Z,101872.80
2023-03-19T03:58:01.372Z,101873.40
2023-03-19T04:00:29.594Z,101872.23
2023-03-19T04:02:57.943Z,101872.67
2023-03-19T04:05:26.593Z,101876.61
2023-03-19T04:07:54.880Z,101875.85
2023-03-19T04:10:23.789Z,101880.11
2023-03-19T04:12:52.004Z,101886.11
2023-03-19T04:15:20.462Z,101886.66
2023-03-19T04:17:49.031Z,101887.59
2023-03-19T04:20:18.743Z,101886.27
2023-03-19T04:22:46.856Z,101885.64
2023-03-19T04:25:15.517Z,101890.11
2023-03-19T04:27:43.651Z,101891.02
2023-03-19T04:30:12.824Z,101891.63
2023-03-19T04:32:42.018Z,101891.16
2023-03-19T04:35:11.172Z,101889.55
2023-03-19T04:37:39.894Z,101892.23
2023-03-19T04:40:08.928Z,101891.84
2023-03-19T04:42:37.125Z,101891.91
2023-03-19T04:45:05.972Z,101889.63
2023-03-19T04:47:34.126Z,101889.34
2023-03-19T04:50:03.030Z,101889.50
2023-03-19T04:52:31.371Z,101888.21
2023-03-19T04:54:59.599Z,101888.98
2023-03-19T04:57:27.812Z,101886.33
2023-03-19T04:59:56.369Z,101888.81
2023-03-19T05:02:24.705Z,101890.87
2023-03-19T05:04:53.767Z,101890.81
2023-03-19T05:07:21.948Z,101897.42
2023-03-19T05:09:50.218Z,101895.36
2023-03-19T05:12:18.432Z,101896.66
2023-03-19T05:14:46.647Z,101899.14
2023-03-19T05:17:15.782Z,101904.17
2023-03-19T05:19:44.048Z,101905.64
2023-03-19T05:22:12.170Z,101907.15
2023-03-19T05:24:40.520Z,101908.77
2023-03-19T05:27:08.700Z,101906.42
2023-03-19T05:29:38.713Z,101906.77
2023-03-19T05:32:08.347Z,101908.92
2023-03-19T05:34:37.552Z,101907.39
2023-03-19T05:37:06.053Z,101902.83
2023-03-19T05:39:34.308Z,101903.44
2023-03-19T05:42:02.822Z,101898.45
2023-03-19T05:44:31.219Z,101895.25
2023-03-19T05:46:59.357Z,101895.80
2023-03-19T05:49:27.818Z,101895.36
2023-03-19T05:51:56.175Z,101890.79
2023-03-19T05:54:24.846Z,101893.95
2023-03-19T05:56:53.058Z,101894.80
2023-03-19T05:59:21.756Z,101896.17
2023-03-19T06:01:49.973Z,101899.69
2023-03-19T06:04:18.126Z,101900.05
2023-03-19T06:06:46.298Z,101901.20
2023-03-19T06:09:14.606Z,101902.19
2023-03-19T06:11:43.197Z,101903.39
2023-03-19T06:14:11.731Z,101902.09
2023-03-19T06:16:39.930Z,101904.05
2023-03-19T06:19:08.204Z,101905.15
2023-03-19T06:21:36.549Z,101910.66
2023-03-19T06:24:04.826Z,101914.10
2023-03-19T06:26:33.116Z,101920.45
2023-03-19T06:29:01.449Z,101923.86
2023-03-19T06:31:29.791Z,101927.75
2023-03-19T06:33:57.974Z,101928.68
2023-03-19T06:36:26.372Z,101927.73
2023-03-19T06:38:54.984Z,101928.52
2023-03-19T06:41:24.893Z,101931.00
2023-03-19T06:43:53.378Z,101935.42
2023-03-19T06:46:21.575Z,101939.42
2023-03-19T06:48:49.884Z,101944.84
2023-03-19T06:51:18.180Z,101943.95
2023-03-19T06:53:46.426Z,101947.09
2023-03-19T06:56:14.660Z,101947.65
2023-03-19T06:58:42.752Z,101948.66
2023-03-19T07:01:11.028Z,101953.95
2023-03-19T07:03:39.325Z,101953.80
2023-03-19T07:06:07.625Z,101952.66
2023-03-19T07:08:36.039Z,101950.07
2023-03-19T07:11:06.227Z,101949.53
2023-03-19T07:13:34.438Z,101949.69
2023-03-19T07:16:02.599Z,101952.71
2023-03-19T07:18:30.835Z,101956.60
2023-03-19T07:20:58.961Z,101958.71
2023-03-19T07:23:27.100Z,101962.05
2023-03-19T07:25:55.682Z,101959.07
2023-03-19T07:28:23.849Z,101957.16
2023-03-19T07:30:53.491Z,101954.54
2023-03-19T07:33:22.148Z,101952.31
2023-03-19T07:35:50.352Z,101949.91
2023-03-19T07:38:18.544Z,101950.61
2023-03-19T07:41:00.918Z,101951.75
2023-03-19T07:43:30.287Z,101945.84
2023-03-19T07:45:59.168Z,101942.59
2023-03-19T07:48:27.490Z,101942.98
2023-03-19T07:50:55.727Z,101940.27
2023-03-19T07:53:23.971Z,101941.48
2023-03-19T07:55:52.296Z,101936.61
2023-03-19T07:58:20.486Z,101931.70
2023-03-19T08:00:48.718Z,101931.54
2023-03-19T08:03:16.936Z,101928.07
2023-03-19T08:05:45.139Z,101927.02
2023-03-19T08:08:13.290Z,101926.73
2023-03-19T08:10:41.861Z,101930.80
2023-03-19T08:13:10.199Z,101934.84
2023-03-19T08:15:38.362Z,101930.59
2023-03-19T08:18:06.748Z,101932.98
2023-03-19T08:20:35.135Z,101934.22
2023-03-19T08:23:03.862Z,101933.84
2023-03-19T08:25:32.817Z,101932.46
2023-03-19T08:28:01.374Z,101933.32
2023-03-19T08:30:29.788Z,101926.64
2023-03-19T08:32:58.412Z,101928.20
2023-03-19T08:35:27.317Z,101926.87
2023-03-19T08:37:56.258Z,101929.57
2023-03-19T08:40:24.475Z,101927.91
2023-03-19T08:42:54.086Z,101923.69
2023-03-19T08:45:23.038Z,101920.59
2023-03-19T08:47:51.506Z,101916.73
2023-03-19T08:50:19.961Z,101915.42
2023-03-19T08:52:48.315Z,101916.67
2023-03-19T08:55:17.301Z,101916.20
2023-03-19T08:57:45.589Z,101917.84
2023-03-19T09:00:14.888Z,101917.18
2023-03-19T09:02:43.098Z,101914.67
2023-03-19T09:05:12.015Z,101909.91
2023-03-19T09:07:40.200Z,101904.21
2023-03-19T09:10:08.796Z,101901.45
2023-03-19T09:12:37.010Z,101905.69
2023-03-19T09:15:06.863Z,101900.76
2023-03-19T09:17:34.997Z,101899.71
2023-03-19T09:20:03.180Z,101899.00
2023-03-19T09:22:31.402Z,101897.66
2023-03-19T09:24:59.574Z,101894.42
2023-03-19T09:27:28.799Z,101895.59
2023-03-19T09:29:56.971Z,101893.98
2023-03-19T09:32:25.501Z,101896.76
2023-03-19T09:34:53.704Z,101896.54
2023-03-19T09:37:21.881Z,101895.79
2023-03-19T09:39:50.031Z,101892.25
2023-03-19T09:42:44.506Z,101890.91
2023-03-19T09:45:15.367Z,101889.14
2023-03-19T09:47:45.543Z,101883.63
2023-03-19T09:50:16.641Z,101882.80
2023-03-19T09:52:51.961Z,101882.27
2023-03-19T09:55:37.139Z,101871.08
2023-03-19T09:58:13.754Z,101871.02
2023-03-19T10:00:42.727Z,101868.73
2023-03-19T10:03:43.001Z,101864.14
2023-03-19T10:06:36.978Z,101862.02
2023-03-19T10:09:38.916Z,101862.44
2023-03-19T10:12:17.549Z,101859.85
2023-03-19T10:15:11.555Z,101858.09
2023-03-19T10:18:04.569Z,101855.86
2023-03-19T10:20:44.740Z,101853.17
2023-03-19T10:23:27.786Z,101854.01
2023-03-19T10:25:58.941Z,101851.61
2023-03-19T10:28:28.951Z,101851.67
2023-03-19T10:31:26.156Z,101850.73
2023-03-19T10:34:33.897Z,101844.12
2023-03-19T10:37:12.787Z,101844.86
2023-03-19T10:39:43.693Z,101843.96
2023-03-19T10:42:39.257Z,101842.33
2023-03-19T10:45:27.526Z,101833.92
2023-03-19T10:48:00.144Z,101828.15
2023-03-19T10:50:47.978Z,101827.18
2023-03-19T10:53:16.144Z,101825.13
2023-03-19T10:55:56.753Z,101823.61
2023-03-19T10:58:27.702Z,101817.88
2023-03-19T11:01:15.617Z,101810.66
2023-03-19T11:03:57.475Z,101811.27
2023-03-19T11:06:28.523Z,101808.02
2023-03-19T11:09:16.712Z,101802.80
2023-03-19T11:11:54.307Z,101798.23
2023-03-19T11:14:32.716Z,101793.09
2023-03-19T11:17:07.796Z,101792.60
2023-03-19T11:19:43.602Z,101789.27
2023-03-19T11:22:23.196Z,101789.51
2023-03-19T11:24:52.768Z,101787.77
2023-03-19T11:27:35.121Z,101784.80
2023-03-19T11:30:13.231Z,101782.09
2023-03-19T11:32:58.764Z,101776.79
2023-03-19T11:35:34.892Z,101772.93
2023-03-19T11:38:05.112Z,101767.05
2023-03-19T11:40:43.250Z,101762.39
2023-03-19T11:43:42.208Z,101758.76
2023-03-19T11:46:31.614Z,101757.96
2023-03-19T11:49:35.332Z,101757.11
2023-03-19T11:52:13.715Z,101748.67
2023-03-19T11:54:54.578Z,101746.72
2023-03-19T11:57:41.242Z,101745.97
2023-03-19T12:00:29.880Z,101744.85
2023-03-19T12:03:12.047Z,101740.24
2023-03-19T12:05:52.011Z,101737.86
2023-03-19T12:08:29.138Z,101739.06
2023-03-19T12:11:28.166Z,101739.89
2023-03-19T12:14:06.782Z,101739.48
2023-03-19T12:16:46.461Z,101739.58
2023-03-19T12:19:36.508Z,101738.77
2023-03-19T12:22:19.963Z,101735.93
2023-03-19T12:25:15.927Z,101731.42
2023-03-19T12:27:47.893Z,101728.52
2023-03-19T12:30:35.293Z,101726.55
2023-03-19T12:33:34.783Z,101723.50
2023-03-19T12:36:09.139Z,101719.59
2023-03-19T12:38:42.200Z,101716.23
2023-03-19T12:41:12.907Z,101715.18
2023-03-19T12:44:00.588Z,101712.22
2023-03-19T12:46:37.810Z,101707.16
2023-03-19T12:49:11.308Z,101709.17
2023-03-19T12:51:44.337Z,101703.51
2023-03-19T12:54:21.761Z,101695.77
2023-03-19T12:56:49.929Z,101700.75
2023-03-19T12:59:50.301Z,101695.71
2023-03-19T13:02:44.745Z,101693.36
2023-03-19T13:05:31.405Z,101686.71
2023-03-19T13:08:24.935Z,101682.62
2023-03-19T13:10:53.163Z,101677.32
2023-03-19T13:13:39.422Z,101675.93
2023-03-19T13:16:36.454Z,101671.81
2023-03-19T13:19:26.665Z,101667.14
2023-03-19T13:22:01.065Z,101657.11
2023-03-19T13:24:35.991Z,101649.02
2023-03-19T13:27:11.245Z,101649.29
2023-03-19T13:29:53.673Z,101649.41
2023-03-19T13:32:38.801Z,101649.45
2023-03-19T13:35:26.988Z,101646.58
2023-03-19T13:38:01.631Z,101643.79
2023-03-19T13:40:45.061Z,101648.98
2023-03-19T13:43:29.053Z,101651.22
2023-03-19T13:46:12.464Z,101650.69
2023-03-19T13:48:46.512Z,101647.52
2023-03-19T13:51:21.961Z,101639.22
2023-03-19T13:54:12.938Z,101635.46
2023-03-19T13:57:01.206Z,101635.92
2023-03-19T13:59:34.965Z,101639.69
2023-03-19T14:02:25.672Z,101634.96
2023-03-19T14:05:08.643Z,101632.61
2023-03-19T14:07:38.673Z,101630.03
2023-03-19T14:10:23.521Z,101630.66
2023-03-19T14:12:52.899Z,101629.77
2023-03-19T14:15:25.146Z,101630.60
2023-03-19T14:17:53.870Z,101626.65
2023-03-19T14:20:35.386Z,101618.88
2023-03-19T14:23:11.695Z,101615.71
2023-03-19T14:26:15.990Z,101616.70
2023-03-19T14:28:53.453Z,101608.23
2023-03-19T14:31:44.414Z,101608.38
2023-03-19T14:34:21.707Z,101602.64
2023-03-19T14:37:03.591Z,101598.70
2023-03-19T14:39:35.149Z,101600.55
2023-03-19T14:42:06.558Z,101598.74
2023-03-19T14:44:40.252Z,101598.03
2023-03-19T14:47:19.788Z,101600.13
2023-03-19T14:50:25.581Z,101599.43
2023-03-19T14:53:05.119Z,101605.52
2023-03-19T14:55:35.819Z,101611.71
2023-03-19T14:58:05.212Z,101611.02
2023-03-19T15:00:49.042Z,101611.88
2023-03-19T15:03:37.136Z,101608.48
2023-03-19T15:06:07.307Z,101605.17
2023-03-19T15:08:38.055Z,101602.94
2023-03-19T15:11:52.729Z,101603.69
2023-03-19T15:14:48.485Z,101598.73
2023-03-19T15:17:28.495Z,101597.42
2023-03-19T15:19:59.693Z,101599.09
2023-03-19T15:22:31.934Z,101599.25
2023-03-19T15:25:12.007Z,101607.02
2023-03-19T15:27:40.946Z,101606.98
2023-03-19T15:30:24.818Z,101606.62
2023-03-19T15:33:07.782Z,101607.15
2023-03-19T15:35:37.571Z,101606.17
2023-03-19T15:38:14.110Z,101606.55
2023-03-19T15:40:42.982Z,101608.88
2023-03-19T15:43:12.923Z,101611.92
2023-03-19T15:45:46.158Z,101617.77
2023-03-19T15:48:35.154Z,101619.75
2023-03-19T15:51:05.642Z,101621.03
2023-03-19T15:53:34.917Z,101623.94
2023-03-19T15:56:04.112Z,101624.41
2023-03-19T15:58:39.182Z,101625.91
2023-03-19T16:01:09.636Z,101624.32
2023-03-19T16:03:40.646Z,101621.73
2023-03-19T16:06:24.478Z,101622.86
2023-03-19T16:08:55.706Z,101619.67
2023-03-19T16:11:35.079Z,101623.02
2023-03-19T16:14:19.329Z,101621.43
2023-03-19T16:16:48.276Z,101622.39
2023-03-19T16:19:30.586Z,101619.73
2023-03-19T16:21:59.842Z,101618.08
2023-03-19T16:24:51.311Z,101613.27
2023-03-19T16:27:22.890Z,101610.83
2023-03-19T16:29:58.849Z,101615.75
2023-03-19T16:32:31.298Z,101615.40
2023-03-19T16:35:20.035Z,101613.46
2023-03-19T16:37:49.332Z,101614.54
2023-03-19T16:40:17.475Z,101618.42
2023-03-19T16:42:48.526Z,101617.04
2023-03-19T16:45:21.496Z,101612.19
2023-03-19T16:47:51.821Z,101606.94
2023-03-19T16:50:22.726Z,101609.61
2023-03-19T16:52:51.049Z,101612.38
2023-03-19T16:55:24.938Z,101611.52
2023-03-19T16:58:37.787Z,101612.98
2023-03-19T17:01:14.319Z,101611.20
2023-03-19T17:03:43.325Z,101610.79
2023-03-19T17:06:14.894Z,101613.27
2023-03-19T17:08:43.726Z,101611.73
2023-03-19T17:11:44.268Z,101616.68
2023-03-19T17:14:21.236Z,101617.78
2023-03-19T17:16:51.731Z,101617.86
2023-03-19T17:19:23.274Z,101616.77
2023-03-19T17:21:53.845Z,101618.39
2023-03-19T17:24:28.036Z,101620.91
2023-03-19T17:26:58.279Z,101622.98
2023-03-19T17:29:27.106Z,101621.10
2023-03-19T17:31:56.753Z,101623.89
2023-03-19T17:34:27.093Z,101624.59
2023-03-19T17:37:04.878Z,101625.42
2023-03-19T17:39:34.189Z,101622.96
2023-03-19T17:42:02.369Z,101628.58
2023-03-19T17:44:30.608Z,101631.06
2023-03-19T17:46:58.871Z,101636.01
2023-03-19T17:49:34.929Z,101636.29
2023-03-19T17:52:03.173Z,101636.98
2023-03-19T17:54:31.347Z,101639.98
2023-03-19T17:56:59.567Z,101639.91
2023-03-19T17:59:27.712Z,101643.05
2023-03-19T18:01:56.011Z,101643.48
2023-03-19T18:04:24.258Z,101641.98
2023-03-19T18:06:54.626Z,101638.89
2023-03-19T18:09:32.902Z,101635.84
2023-03-19T18:12:01.129Z,101636.64
2023-03-19T18:14:29.322Z,101643.48
2023-03-19T18:16:57.459Z,101645.61
2023-03-19T18:19:30.004Z,101645.91
2023-03-19T18:21:58.369Z,101644.75
2023-03-19T18:24:26.882Z,101647.14
2023-03-19T18:26:55.103Z,101645.38
2023-03-19T18:29:23.353Z,101642.49
2023-03-19T18:31:51.739Z,101643.73
2023-03-19T18:34:19.976Z,101646.67
2023-03-19T18:36:48.562Z,101644.30
2023-03-19T18:39:17.249Z,101642.41
2023-03-19T18:41:45.452Z,101639.77
2023-03-19T18:44:14.032Z,101640.24
2023-03-19T18:46:42.548Z,101642.88
2023-03-19T18:49:19.741Z,101646.52
2023-03-19T18:52:01.007Z,101649.77
2023-03-19T18:54:31.098Z,101655.66
2023-03-19T18:57:00.791Z,101651.55
2023-03-19T18:59:32.953Z,101649.83
2023-03-19T19:02:04.274Z,101650.22
2023-03-19T19:04:32.538Z,101654.48
2023-03-19T19:07:01.875Z,101652.25
2023-03-19T19:09:30.030Z,101652.35
2023-03-19T19:12:00.789Z,101650.08
2023-03-19T19:14:29.252Z,101647.92
2023-03-19T19:16:57.422Z,101650.45
2023-03-19T19:19:27.772Z,101653.65
2023-03-19T19:21:56.019Z,101655.88
2023-03-19T19:24:24.640Z,101651.52
2023-03-19T19:26:54.468Z,101656.14
2023-03-19T19:29:25.895Z,101652.49
2023-03-19T19:31:54.903Z,101650.06
2023-03-19T19:34:23.301Z,101644.88
2023-03-19T19:36:52.591Z,101642.11
2023-03-19T19:39:21.452Z,101638.95
2023-03-19T19:41:56.703Z,101633.45
2023-03-19T19:44:25.069Z,101625.62
2023-03-19T19:46:54.729Z,101625.67
2023-03-19T19:49:23.320Z,101632.02
2023-03-19T19:51:51.424Z,101633.59
2023-03-19T19:54:19.607Z,101640.52
2023-03-19T19:56:47.791Z,101639.40
2023-03-19T19:59:16.311Z,101635.49
2023-03-19T20:01:44.557Z,101630.90
2023-03-19T20:04:14.802Z,101633.29
2023-03-19T20:06:43.072Z,101636.23
2023-03-19T20:09:11.427Z,101642.70
2023-03-19T20:11:39.565Z,101643.30
2023-03-19T20:14:12.537Z,101644.20
2023-03-19T20:16:41.173Z,101642.15
2023-03-19T20:19:19.030Z,101640.45
2023-03-19T20:21:47.344Z,101644.34
2023-03-19T20:24:15.689Z,101646.09
2023-03-19T20:26:44.036Z,101646.87
2023-03-19T20:29:16.119Z,101647.57
2023-03-19T20:31:44.799Z,101642.57
2023-03-19T20:34:22.524Z,101643.48
2023-03-19T20:36:57.081Z,101643.25
2023-03-19T20:39:25.244Z,101640.28
2023-03-19T20:41:53.430Z,101637.44
2023-03-19T20:44:23.035Z,101631.14
2023-03-19T20:46:51.325Z,101629.53
2023-03-19T20:49:19.478Z,101632.96
2023-03-19T20:51:47.577Z,101636.48
2023-03-19T20:54:16.561Z,101635.11
2023-03-19T20:56:46.578Z,101632.98
2023-03-19T20:59:14.756Z,101630.57
2023-03-19T21:01:43.009Z,101632.66
2023-03-19T21:04:21.091Z,101639.41
2023-03-19T21:06:53.536Z,101649.29
2023-03-19T21:09:23.486Z,101653.51
2023-03-19T21:11:53.004Z,101657.72
2023-03-19T21:14:23.534Z,101658.02
2023-03-19T21:16:51.785Z,101656.82
2023-03-19T21:19:20.109Z,101660.41
2023-03-19T21:21:48.433Z,101655.06
2023-03-19T21:24:19.850Z,101652.55
2023-03-19T21:26:48.117Z,101651.89
2023-03-19T21:29:23.357Z,101648.95
2023-03-19T21:31:54.393Z,101651.23
2023-03-19T21:34:22.664Z,101648.54
2023-03-19T21:36:51.032Z,101648.27
2023-03-19T21:39:19.554Z,101646.76
2023-03-19T21:41:47.707Z,101642.02
2023-03-19T21:44:19.759Z,101638.08
2023-03-19T21:46:48.739Z,101633.27
2023-03-19T21:49:17.282Z,101637.50
2023-03-19T21:51:46.888Z,101638.27
2023-03-19T21:54:15.890Z,101637.13
2023-03-19T21:56:45.623Z,101635.40
2023-03-19T21:59:20.207Z,101632.21
2023-03-19T22:01:48.444Z,101631.33
2023-03-19T22:04:16.864Z,101631.58
2023-03-19T22:06:46.843Z,101631.14
2023-03-19T22:09:15.082Z,101634.05
2023-03-19T22:11:43.336Z,101638.35
2023-03-19T22:14:22.832Z,101639.58
2023-03-19T22:16:53.693Z,101643.73
2023-03-19T22:19:22.753Z,101651.20
2023-03-19T22:21:50.967Z,101651.32
2023-03-19T22:24:19.094Z,101652.48
2023-03-19T22:26:49.669Z,101656.38
2023-03-19T22:29:20.865Z,101658.78
2023-03-19T22:31:50.160Z,101661.09
2023-03-19T22:34:20.318Z,101657.60
2023-03-19T22:36:48.746Z,101658.15
2023-03-19T22:39:17.282Z,101659.23
2023-03-19T22:41:47.985Z,101654.58
2023-03-19T22:44:31.046Z,101653.39
2023-03-19T22:47:01.001Z,101647.46
2023-03-19T22:54:06.332Z,101643.65
2023-03-19T22:56:34.911Z,101645.10
2023-03-19T22:59:03.607Z,101637.94
2023-03-19T23:01:38.976Z,101633.68
2023-03-19T23:04:28.502Z,101642.05
2023-03-19T23:06:59.094Z,101638.95
2023-03-19T23:09:31.010Z,101634.20
2023-03-19T23:12:00.421Z,101628.56
2023-03-19T23:14:31.232Z,101625.54
2023-03-19T23:17:18.059Z,101623.13
2023-03-19T23:19:46.966Z,101623.31
2023-03-19T23:22:16.863Z,101621.09
2023-03-19T23:24:45.547Z,101619.66
2023-03-19T23:27:24.120Z,101615.88
2023-03-19T23:29:52.753Z,101610.42
2023-03-19T23:32:22.073Z,101606.95
2023-03-19T23:34:59.627Z,101601.54
2023-03-19T23:37:30.109Z,101605.58
2023-03-19T23:39:58.476Z,101602.80
2023-03-19T23:42:31.857Z,101596.91
2023-03-19T23:45:03.526Z,101595.05
2023-03-19T23:47:31.898Z,101594.27
2023-03-19T23:50:00.370Z,101590.44
2023-03-19T23:52:28.863Z,101586.48
2023-03-19T23:54:57.865Z,101578.41
2023-03-19T23:57:26.852Z,101572.63
2023-03-19T23:59:55.329Z,101578.89
